Time;durP1;ratioP1;P1;durP2;ratioP2;P2;SDS_P1;SDS_P2;PMS_P1;PMS_P2;Temp;Humidity;BMP_temperature;BMP_pressure;BME280_temperature;BME280_humidity;BME280_pressure;Samples;Min_cycle;Max_cycle;Signal;HPM_P1;HPM_P2
2021/12/23 00:01:24;;;;;;;20.30;10.27;;;0.10;99.90;;;-1.99;85.65;101342.56;2569097;30;138177;-40
2021/12/23 00:03:52;;;;;;;19.90;11.05;;;0.00;99.90;;;-1.88;85.26;101334.56;2566784;30;136905;-39
2021/12/23 00:06:19;;;;;;;24.02;11.55;;;0.10;99.90;;;-1.86;85.37;101347.81;2566271;30;138980;-39
2021/12/23 00:08:47;;;;;;;22.25;10.38;;;0.10;99.90;;;-1.83;86.35;101344.94;2565889;30;137697;-40
2021/12/23 00:11:14;;;;;;;20.40;10.63;;;0.10;99.90;;;-1.85;86.09;101342.34;2568368;30;138216;-40
2021/12/23 00:13:50;;;;;;;22.45;10.30;;;0.10;99.90;;;-1.77;84.68;101347.97;2569413;30;137568;-40
2021/12/23 00:16:29;;;;;;;20.25;10.30;;;0.10;99.90;;;-1.68;84.78;101337.53;2567243;30;139127;-39
2021/12/23 00:19:03;;;;;;;;;;;0.20;99.90;;;-1.72;85.16;101336.91;2567186;30;137771;-39
2021/12/23 00:24:17;;;;;;;19.92;10.27;;;0.20;99.90;;;-1.73;85.56;101336.03;2567833;30;137475;-40
2021/12/23 00:26:45;;;;;;;28.00;11.70;;;0.20;99.90;;;-1.72;84.81;101318.19;2567565;30;139386;-40
2021/12/23 00:29:12;;;;;;;20.52;10.93;;;0.20;99.90;;;-1.73;85.11;101308.44;2567951;30;136764;-40
2021/12/23 00:31:40;;;;;;;20.58;10.55;;;0.20;99.90;;;-1.69;84.81;101295.69;2569178;30;137482;-40
2021/12/23 00:34:09;;;;;;;22.77;10.80;;;0.20;99.90;;;-1.66;84.43;101298.97;2568239;30;137447;-39
2021/12/23 00:36:38;;;;;;;22.58;10.73;;;0.20;99.90;;;-1.62;84.26;101296.91;2568220;30;138460;-40
2021/12/23 00:39:07;;;;;;;21.92;12.00;;;0.30;99.90;;;-1.60;84.57;101298.47;2568168;30;136640;-39
2021/12/23 00:41:36;;;;;;;24.98;11.32;;;0.30;99.90;;;-1.58;83.69;101287.66;2568746;30;138247;-40
2021/12/23 00:44:04;;;;;;;24.10;11.98;;;0.30;99.90;;;-1.61;84.07;101274.53;2567945;30;136857;-40
2021/12/23 00:46:31;;;;;;;19.67;10.65;;;0.30;99.90;;;-1.66;84.43;101269.53;2567994;30;138233;-40
2021/12/23 00:48:59;;;;;;;22.45;10.55;;;0.30;99.90;;;-1.62;84.72;101265.63;2568591;30;138237;-40
2021/12/23 00:51:27;;;;;;;22.95;10.93;;;0.30;99.90;;;-1.64;84.45;101254.19;2568938;30;138231;-39
2021/12/23 00:54:03;;;;;;;24.73;11.43;;;0.30;99.90;;;-1.66;84.13;101253.47;2568767;30;136759;-39
2021/12/23 00:56:37;;;;;;;21.52;10.75;;;0.30;99.90;;;-1.68;84.13;101247.38;2565398;30;138557;-40
2021/12/23 00:59:09;;;;;;;18.83;10.18;;;0.30;99.90;;;-1.66;84.45;101242.75;2566496;30;137823;-39
2021/12/23 01:01:37;;;;;;;21.85;11.02;;;0.30;99.90;;;-1.74;84.37;101234.50;2567757;30;139069;-39
2021/12/23 01:04:05;;;;;;;22.05;11.43;;;0.30;99.90;;;-1.70;84.82;101240.47;2569011;30;136732;-40
2021/12/23 01:06:33;;;;;;;22.55;11.10;;;0.20;99.90;;;-1.74;84.16;101235.34;2567565;30;138464;-39
2021/12/23 01:09:02;;;;;;;18.98;10.43;;;0.20;99.90;;;-1.70;83.95;101238.63;2568320;30;137738;-40
2021/12/23 01:11:30;;;;;;;24.05;12.27;;;0.20;99.90;;;-1.70;84.77;101252.00;2567591;30;138409;-40
2021/12/23 01:14:26;;;;;;;22.48;10.60;;;0.20;99.90;;;-1.73;84.72;101237.03;2568155;30;137556;-39
2021/12/23 01:19:27;;;;;;;22.95;10.93;;;0.20;99.90;;;-1.73;84.61;101234.38;2569117;30;137503;-39
2021/12/23 01:21:54;;;;;;;22.85;11.77;;;0.20;99.90;;;-1.73;84.22;101241.56;2565947;30;138846;-40
2021/12/23 01:24:28;;;;;;;22.20;10.95;;;0.20;99.90;;;-1.71;84.50;101228.91;2567935;30;137719;-39
2021/12/23 01:26:56;;;;;;;22.50;10.98;;;0.20;99.90;;;-1.70;84.45;101219.91;2569320;30;138256;-39
2021/12/23 01:29:23;;;;;;;23.45;11.18;;;0.20;99.90;;;-1.71;84.59;101223.56;2568117;30;138302;-40
2021/12/23 01:31:51;;;;;;;22.80;10.80;;;0.20;99.90;;;-1.71;84.94;101214.69;2565826;30;138269;-39
2021/12/23 01:34:18;;;;;;;21.75;11.43;;;0.20;99.90;;;-1.72;84.94;101197.78;2567481;30;138403;-39
2021/12/23 01:36:46;;;;;;;19.90;10.60;;;0.20;99.90;;;-1.65;84.62;101193.63;2566711;30;137755;-39
2021/12/23 01:39:14;;;;;;;19.13;10.10;;;0.20;99.90;;;-1.66;84.85;101186.56;2568959;30;137588;-40
2021/12/23 01:41:41;;;;;;;20.60;10.65;;;0.30;99.90;;;-1.69;84.72;101189.50;2565187;30;138076;-39
2021/12/23 01:44:09;;;;;;;18.88;10.90;;;0.20;99.90;;;-1.61;84.65;101191.56;2568024;30;136822;-40
2021/12/23 01:46:37;;;;;;;20.08;11.35;;;0.30;99.90;;;-1.63;84.45;101185.47;2568452;30;139175;-39
2021/12/23 01:49:05;;;;;;;24.38;11.80;;;0.30;99.90;;;-1.64;83.96;101203.34;2567478;30;138271;-40
2021/12/23 01:51:37;;;;;;;23.63;11.23;;;0.30;99.90;;;-1.65;85.05;101206.16;2566894;30;138334;-40
2021/12/23 01:54:04;;;;;;;21.92;11.05;;;0.30;99.90;;;-1.80;85.39;101184.16;2568482;30;138254;-40
2021/12/23 01:56:32;;;;;;;24.67;10.98;;;0.20;99.90;;;-1.71;85.03;101188.78;2568832;30;137428;-40
2021/12/23 01:59:00;;;;;;;21.15;11.18;;;0.20;99.90;;;-1.72;85.46;101184.41;2568561;30;137673;-40
2021/12/23 02:01:27;;;;;;;23.40;11.18;;;0.20;99.90;;;-1.65;85.53;101195.47;2564587;30;138917;-39
2021/12/23 02:03:55;;;;;;;22.45;10.82;;;0.20;99.90;;;-1.64;85.37;101207.88;2568079;30;136755;-39
2021/12/23 02:06:22;;;;;;;24.92;12.73;;;0.30;99.90;;;-1.69;85.30;101200.19;2567474;30;137300;-40
2021/12/23 02:08:50;;;;;;;22.98;11.77;;;0.30;99.90;;;-1.74;84.77;101181.00;2568318;30;137576;-39
2021/12/23 02:11:17;;;;;;;23.25;11.63;;;0.20;99.90;;;-1.73;85.43;101193.41;2568324;30;138362;-39
2021/12/23 02:13:45;;;;;;;21.45;10.60;;;0.20;99.90;;;-1.78;85.41;101179.53;2568926;30;138410;-40
2021/12/23 02:16:13;;;;;;;21.25;11.25;;;0.20;99.90;;;-1.82;85.33;101157.53;2568580;30;137901;-40
2021/12/23 02:18:41;;;;;;;24.63;11.07;;;0.20;99.90;;;-1.79;86.45;101151.09;2568467;30;137358;-40
2021/12/23 02:21:08;;;;;;;21.85;11.25;;;0.10;99.90;;;-1.83;86.13;101138.94;2566917;30;138134;-39
2021/12/23 02:23:36;;;;;;;22.70;10.77;;;0.10;99.90;;;-1.78;86.43;101134.06;2567747;30;137641;-39
2021/12/23 02:26:04;;;;;;;21.55;11.15;;;0.10;99.90;;;-1.85;86.75;101136.38;2568306;30;137363;-39
2021/12/23 02:28:32;;;;;;;20.25;11.10;;;0.10;99.90;;;-1.78;86.38;101131.38;2567980;30;137493;-40
2021/12/23 02:30:59;;;;;;;;;;;0.10;99.90;;;-1.70;86.67;101136.13;2566413;30;137322;-40
2021/12/23 02:33:28;;;;;;;24.38;10.98;;;0.20;99.90;;;-1.69;86.66;101130.63;2568519;30;136977;-40
2021/12/23 02:35:58;;;;;;;23.75;11.50;;;0.20;99.90;;;-1.67;86.42;101141.22;2566978;30;139013;-40
2021/12/23 02:38:26;;;;;;;25.55;11.73;;;0.20;99.90;;;-1.62;86.84;101141.69;2567974;30;137593;-40
2021/12/23 02:40:53;;;;;;;;;;;0.30;99.90;;;-1.67;86.95;101139.38;2568971;30;137427;-40
2021/12/23 02:43:26;;;;;;;24.92;11.75;;;0.30;99.90;;;-1.63;86.79;101140.00;2568094;30;136794;-39
2021/12/23 02:45:58;;;;;;;24.15;12.30;;;0.30;99.90;;;-1.67;87.14;101141.22;2568015;30;137332;-40
2021/12/23 02:48:35;;;;;;;24.95;11.52;;;0.30;99.90;;;-1.69;87.66;101146.69;2567627;30;137527;-40
2021/12/23 02:51:08;;;;;;;23.60;11.38;;;0.20;99.90;;;-1.67;87.78;101147.41;2566759;30;139721;-40
2021/12/23 02:53:38;;;;;;;22.75;12.02;;;0.20;99.90;;;-1.63;88.20;101140.81;2567432;30;138285;-40
2021/12/23 02:56:09;;;;;;;23.90;12.20;;;0.30;99.90;;;-1.60;87.57;101126.38;2567505;30;138221;-40
2021/12/23 02:58:37;;;;;;;24.98;11.75;;;0.30;99.90;;;-1.58;88.15;101128.94;2568558;30;137645;-40
2021/12/23 03:01:08;;;;;;;23.83;12.82;;;0.30;99.90;;;-1.58;88.29;101132.44;2565320;30;139057;-40
2021/12/23 03:03:36;;;;;;;24.23;11.32;;;0.30;99.90;;;-1.49;87.26;101131.66;2568145;30;136633;-40
2021/12/23 03:06:05;;;;;;;25.77;12.13;;;0.30;99.90;;;-1.54;87.86;101130.38;2564965;30;139329;-40
2021/12/23 03:08:38;;;;;;;25.88;11.48;;;0.40;99.90;;;-1.54;87.43;101141.06;2567551;30;137459;-39
2021/12/23 03:11:10;;;;;;;28.63;12.98;;;0.40;99.90;;;-1.58;87.41;101140.47;2578659;30;137999;-37
2021/12/23 03:13:38;;;;;;;24.02;12.10;;;0.40;99.90;;;-1.56;87.77;101138.50;2567550;30;137221;-37
2021/12/23 03:16:07;;;;;;;25.65;12.48;;;0.40;99.90;;;-1.53;87.31;101130.22;2568857;30;138121;-37
2021/12/23 03:18:35;;;;;;;24.65;12.25;;;0.40;99.90;;;-1.54;87.10;101112.47;2567869;30;137908;-37
2021/12/23 03:21:04;;;;;;;24.08;11.80;;;0.40;99.90;;;-1.61;87.26;101111.28;2565643;30;138374;-37
2021/12/23 03:23:32;;;;;;;22.70;11.95;;;0.40;99.90;;;-1.56;87.94;101117.09;2567020;30;137379;-37
2021/12/23 03:26:02;;;;;;;24.88;12.68;;;0.40;99.90;;;-1.61;87.71;101101.41;2566783;30;138208;-37
2021/12/23 03:28:30;;;;;;;27.02;11.90;;;0.30;99.90;;;-1.60;87.96;101103.09;2567632;30;137540;-37
2021/12/23 03:30:59;;;;;;;27.00;12.68;;;0.30;99.90;;;-1.64;87.91;101090.97;2566580;30;138024;-37
2021/12/23 03:33:27;;;;;;;27.23;13.18;;;0.30;99.90;;;-1.70;87.86;101098.66;2567094;30;136746;-37
2021/12/23 03:35:55;;;;;;;27.40;13.07;;;0.30;99.90;;;-1.79;88.03;101095.75;2565813;30;138235;-37
2021/12/23 03:38:25;;;;;;;25.45;13.02;;;0.20;99.90;;;-1.82;88.85;101087.13;2568591;30;137525;-37
2021/12/23 03:40:53;;;;;;;24.45;12.00;;;0.10;99.90;;;-1.90;88.96;101101.13;2567707;30;138103;-37
2021/12/23 03:43:21;;;;;;;21.77;11.18;;;0.10;99.90;;;-1.96;89.45;101112.31;2567579;30;137558;-37
2021/12/23 03:45:50;;;;;;;25.88;12.65;;;0.00;99.90;;;-1.98;89.70;101109.75;2569361;30;138207;-37
2021/12/23 03:48:18;;;;;;;21.70;11.70;;;0.00;99.90;;;-2.02;90.07;101098.44;2569092;30;136712;-37
2021/12/23 03:50:47;;;;;;;23.33;12.77;;;0.00;99.90;;;-1.96;89.81;101098.97;2568054;30;138303;-37
2021/12/23 03:53:17;;;;;;;27.48;12.68;;;-0.10;99.90;;;-1.94;89.84;101105.03;2568180;30;137396;-37
2021/12/23 03:55:45;;;;;;;27.98;12.55;;;0.00;99.90;;;-1.95;89.81;101100.66;2568483;30;138897;-37
2021/12/23 03:58:13;;;;;;;22.20;11.98;;;0.00;99.90;;;-1.85;89.51;101092.75;2566726;30;137737;-37
2021/12/23 04:00:43;;;;;;;26.55;12.80;;;0.00;99.90;;;-1.95;89.39;101085.44;2568301;30;139607;-37
2021/12/23 04:03:11;;;;;;;24.05;12.63;;;0.00;99.90;;;-2.04;90.00;101095.06;2568702;30;138031;-37
2021/12/23 04:05:39;;;;;;;25.67;12.57;;;-0.10;99.90;;;-2.00;89.58;101087.66;2568270;30;138233;-37
2021/12/23 04:08:06;;;;;;;23.15;12.27;;;-0.10;99.90;;;-2.07;90.18;101067.72;2568430;30;137054;-37
2021/12/23 04:10:34;;;;;;;29.52;12.65;;;-0.10;99.90;;;-2.00;90.68;101074.28;2567801;30;137401;-36
2021/12/23 04:13:03;;;;;;;26.25;12.77;;;-0.10;99.90;;;-1.97;90.81;101074.03;2567065;30;136620;-37
2021/12/23 04:15:31;;;;;;;25.00;12.85;;;0.00;99.90;;;-1.78;89.89;101062.66;2567583;30;138311;-36
2021/12/23 04:17:58;;;;;;;27.23;12.70;;;0.10;99.90;;;-1.85;89.92;101066.00;2567797;30;138379;-37
2021/12/23 04:20:33;;;;;;;24.35;13.07;;;0.10;99.90;;;-1.89;90.67;101074.25;2567900;30;138883;-37
2021/12/23 04:23:03;;;;;;;22.70;12.43;;;0.00;99.90;;;-1.94;90.19;101057.72;2568611;30;137482;-37
2021/12/23 04:25:31;;;;;;;27.45;12.93;;;0.00;99.90;;;-1.99;90.71;101057.25;2567985;30;138849;-37
2021/12/23 04:28:02;;;;;;;29.23;12.93;;;0.00;99.90;;;-2.03;91.22;101061.16;2568443;30;137111;-37
2021/12/23 04:30:30;;;;;;;23.73;12.23;;;-0.10;99.90;;;-1.96;91.53;101057.00;2568328;30;137658;-37
2021/12/23 04:32:58;;;;;;;;;;;-0.10;99.90;;;-1.94;90.82;101055.03;2567863;30;138238;-37
2021/12/23 04:35:25;;;;;;;26.88;13.25;;;0.00;99.90;;;-2.02;91.10;101049.47;2567106;30;138150;-37
2021/12/23 04:37:53;;;;;;;24.30;12.15;;;-0.10;99.90;;;-2.08;91.42;101047.31;2568291;30;137570;-37
2021/12/23 04:40:20;;;;;;;27.00;12.73;;;-0.10;99.90;;;-2.05;92.28;101047.06;2565651;30;138711;-37
2021/12/23 04:42:48;;;;;;;27.85;13.38;;;-0.10;99.90;;;-2.02;91.88;101033.44;2568032;30;137396;-37
2021/12/23 04:45:16;;;;;;;25.60;11.73;;;-0.10;99.90;;;-2.02;91.66;101020.91;2567808;30;138214;-37
2021/12/23 04:47:43;;;;;;;;;;;-0.10;99.90;;;-1.98;91.99;101029.53;2568779;30;136934;-37
2021/12/23 04:50:14;;;;;;;28.90;13.27;;;-0.10;99.90;;;-1.95;91.82;101026.59;2568742;30;138258;-37
2021/12/23 04:52:44;;;;;;;25.65;13.07;;;0.00;99.90;;;-2.01;91.79;101019.09;2566405;30;137110;-37
2021/12/23 04:55:15;;;;;;;24.13;12.88;;;-0.10;99.90;;;-2.00;91.92;101020.78;2568021;30;138440;-37
2021/12/23 04:57:43;;;;;;;29.05;13.60;;;-0.10;99.90;;;-1.94;91.70;100998.88;2568097;30;137551;-37
2021/12/23 05:00:14;;;;;;;;;;;0.00;99.90;;;-1.94;92.02;101011.41;2569483;30;138273;-37
2021/12/23 05:02:42;;;;;;;29.55;13.10;;;0.00;99.90;;;-1.99;91.77;100990.41;2568379;30;137037;-37
2021/12/23 05:05:10;;;;;;;25.73;12.60;;;0.00;99.90;;;-1.99;92.25;101008.25;2566306;30;138058;-37
2021/12/23 05:07:39;;;;;;;27.40;13.45;;;0.00;99.90;;;-2.04;91.84;100995.28;2568778;30;137517;-37
2021/12/23 05:10:10;;;;;;;26.90;13.82;;;-0.10;99.90;;;-1.98;92.05;100983.22;2567869;30;138183;-37
2021/12/23 05:12:43;;;;;;;29.98;13.55;;;-0.10;99.90;;;-1.98;92.22;100983.22;2568356;30;137020;-37
2021/12/23 05:15:18;;;;;;;27.52;13.38;;;-0.10;99.90;;;-1.96;92.81;100981.28;2567537;30;139146;-37
2021/12/23 05:17:47;;;;;;;27.88;13.52;;;-0.10;99.90;;;-2.01;92.59;100976.31;2568263;30;137407;-37
2021/12/23 05:20:18;;;;;;;23.70;12.65;;;-0.10;99.90;;;-1.97;92.73;100972.41;2568724;30;138671;-37
2021/12/23 05:22:47;;;;;;;29.80;13.73;;;-0.10;99.90;;;-1.98;92.86;100965.34;2566392;30;138237;-37
2021/12/23 05:25:16;;;;;;;30.75;13.70;;;-0.10;99.90;;;-1.92;92.66;100964.00;2568265;30;138332;-37
2021/12/23 05:27:45;;;;;;;29.10;14.13;;;0.00;99.90;;;-1.85;92.96;100975.03;2567752;30;137401;-37
2021/12/23 05:30:16;;;;;;;30.48;14.20;;;0.00;99.90;;;-1.84;92.34;100960.69;2568371;30;139136;-37
2021/12/23 05:32:45;;;;;;;25.40;13.05;;;0.00;99.90;;;-1.90;92.78;100956.69;2566994;30;137603;-37
2021/12/23 05:35:16;;;;;;;29.85;14.38;;;0.00;99.90;;;-1.86;92.47;100952.78;2568238;30;139133;-37
2021/12/23 05:37:45;;;;;;;30.35;13.73;;;0.00;99.90;;;-1.72;92.14;100959.66;2568211;30;136831;-37
2021/12/23 05:40:16;;;;;;;28.05;13.60;;;0.10;99.90;;;-1.73;92.04;100969.50;2567678;30;137808;-37
2021/12/23 05:42:45;;;;;;;29.73;13.82;;;0.10;99.90;;;-1.75;91.91;100965.25;2568348;30;136703;-37
2021/12/23 05:45:14;;;;;;;27.77;13.77;;;0.20;99.90;;;-1.76;91.95;100956.38;2568284;30;137444;-37
2021/12/23 05:47:43;;;;;;;28.15;14.30;;;0.10;99.90;;;-1.76;92.15;100947.50;2568147;30;137627;-37
2021/12/23 05:50:12;;;;;;;25.92;13.40;;;0.20;99.90;;;-1.73;91.73;100948.09;2568523;30;138469;-37
2021/12/23 05:52:40;;;;;;;25.48;13.18;;;0.20;99.90;;;-1.70;91.95;100952.34;2566222;30;136779;-37
2021/12/23 05:55:11;;;;;;;25.73;13.38;;;0.20;99.90;;;-1.73;92.33;100940.06;2567694;30;138000;-37
2021/12/23 05:57:39;;;;;;;29.45;13.90;;;0.20;99.90;;;-1.72;92.52;100938.25;2567983;30;137744;-37
2021/12/23 06:00:21;;;;;;;25.02;13.10;;;0.20;99.90;;;-1.76;92.54;100936.81;2567376;30;137956;-37
2021/12/23 06:02:49;;;;;;;31.10;14.95;;;0.20;99.90;;;-1.66;92.82;100913.66;2567549;30;136867;-37
2021/12/23 06:05:18;;;;;;;29.35;13.70;;;0.20;99.90;;;-1.71;92.44;100913.19;2566544;30;138186;-37
2021/12/23 06:07:47;;;;;;;29.75;14.18;;;0.20;99.90;;;-1.70;92.87;100920.25;2569023;30;137674;-37
2021/12/23 06:10:16;;;;;;;30.23;13.80;;;0.20;99.90;;;-1.66;92.69;100932.38;2568120;30;138192;-37
2021/12/23 06:12:44;;;;;;;25.42;12.85;;;0.20;99.90;;;-1.72;92.90;100927.53;2567264;30;138455;-37
2021/12/23 06:15:15;;;;;;;28.77;14.00;;;0.20;99.90;;;-1.67;93.09;100909.28;2567875;30;139229;-37
2021/12/23 06:17:44;;;;;;;29.27;13.95;;;0.20;99.90;;;-1.69;93.02;100911.22;2568174;30;137553;-37
2021/12/23 06:20:12;;;;;;;27.65;13.30;;;0.20;99.90;;;-1.70;93.17;100927.44;2567151;30;138222;-37
2021/12/23 06:22:40;;;;;;;27.73;13.38;;;0.20;99.90;;;-1.65;92.78;100918.00;2568503;30;137514;-37
2021/12/23 06:25:10;;;;;;;;;;;0.20;99.90;;;-1.62;93.10;100906.22;2567864;30;137430;-37
2021/12/23 06:27:39;;;;;;;27.13;12.82;;;0.30;99.90;;;-1.58;92.87;100907.66;2567679;30;137111;-37
2021/12/23 06:30:18;;;;;;;28.90;13.43;;;0.30;99.90;;;-1.53;92.65;100904.59;2566857;30;137975;-37
2021/12/23 06:32:52;;;;;;;27.83;13.35;;;0.30;99.90;;;-1.60;92.70;100904.25;2567439;30;137572;-37
2021/12/23 06:35:24;;;;;;;29.13;13.80;;;0.30;99.90;;;-1.55;92.62;100901.19;2567755;30;139081;-37
2021/12/23 06:37:53;;;;;;;27.67;14.13;;;0.30;99.90;;;-1.50;92.55;100901.66;2566281;30;137924;-37
2021/12/23 06:40:22;;;;;;;26.90;13.55;;;0.40;99.90;;;-1.52;92.95;100900.94;2567450;30;138335;-37
2021/12/23 06:42:51;;;;;;;33.25;15.18;;;0.40;99.90;;;-1.52;93.10;100919.66;2568021;30;137701;-37
2021/12/23 06:45:18;;;;;;;31.63;13.88;;;0.40;99.90;;;-1.49;93.52;100917.56;2566450;30;138103;-37
2021/12/23 06:47:46;;;;;;;;;;;0.40;99.90;;;-1.54;92.86;100916.28;2568325;30;138371;-37
2021/12/23 06:50:17;;;;;;;29.35;13.73;;;0.40;99.90;;;-1.47;92.80;100914.75;2566738;30;138273;-37
2021/12/23 06:52:45;;;;;;;28.17;13.75;;;0.40;99.90;;;-1.46;93.08;100903.06;2568819;30;136678;-37
2021/12/23 06:55:15;;;;;;;29.20;13.55;;;0.40;99.90;;;-1.43;92.88;100905.47;2567514;30;138248;-37
2021/12/23 06:57:44;;;;;;;27.77;14.25;;;0.40;99.90;;;-1.40;92.57;100907.88;2568354;30;137620;-37
2021/12/23 07:00:17;;;;;;;31.23;14.13;;;0.50;99.90;;;-1.40;92.66;100910.56;2567413;30;139189;-37
2021/12/23 07:02:46;;;;;;;31.92;14.98;;;0.50;99.90;;;-1.35;92.78;100894.94;2567599;30;137221;-37
2021/12/23 07:05:15;;;;;;;27.55;14.05;;;0.50;99.90;;;-1.39;92.66;100898.03;2567649;30;137345;-37
2021/12/23 07:10:30;;;;;;;28.97;14.53;;;0.50;99.90;;;-1.33;93.13;100895.69;2568143;30;138486;-37
2021/12/23 07:12:59;;;;;;;29.23;14.57;;;0.50;99.90;;;-1.32;92.21;100886.69;2566212;30;137631;-37
2021/12/23 07:15:28;;;;;;;29.02;14.23;;;0.60;99.90;;;-1.38;92.21;100891.72;2567566;30;138247;-37
2021/12/23 07:17:58;;;;;;;26.55;13.43;;;0.50;99.90;;;-1.32;92.26;100899.19;2567420;30;137474;-37
2021/12/23 07:20:29;;;;;;;27.08;14.07;;;0.50;99.90;;;-1.40;92.27;100881.13;2567413;30;138193;-37
2021/12/23 07:22:57;;;;;;;28.45;14.10;;;0.50;99.90;;;-1.30;92.43;100878.50;2568304;30;138367;-37
2021/12/23 07:25:25;;;;;;;29.38;14.05;;;0.60;99.90;;;-1.31;92.58;100866.09;2567379;30;139028;-36
2021/12/23 07:27:53;;;;;;;29.75;14.13;;;0.60;99.90;;;-1.36;92.35;100858.47;2567967;30;137573;-37
2021/12/23 07:30:23;;;;;;;26.67;13.93;;;0.50;99.90;;;-1.41;93.11;100860.69;2568501;30;138231;-37
2021/12/23 07:32:52;;;;;;;27.23;14.00;;;0.50;99.90;;;-1.38;93.09;100873.81;2566358;30;137731;-37
2021/12/23 07:35:19;;;;;;;27.48;13.73;;;0.50;99.90;;;-1.39;93.15;100885.50;2566818;30;139205;-37
2021/12/23 07:37:48;;;;;;;;;;;0.50;99.90;;;-1.41;93.24;100883.94;2568500;30;137668;-37
2021/12/23 07:40:17;;;;;;;33.17;14.35;;;0.50;99.90;;;-1.37;93.36;100896.09;2567047;30;138146;-37
2021/12/23 07:43:31;;;;;;;28.92;13.82;;;0.50;99.90;;;-1.36;93.56;100895.09;2567204;30;137410;-37
2021/12/23 07:45:40;;;;;;;29.13;14.35;;;0.50;99.90;;;-1.33;92.99;100890.34;2568031;30;138484;-37
2021/12/23 07:48:08;;;;;;;27.98;13.68;;;0.60;99.90;;;-1.31;93.22;100887.50;2566028;30;137512;-37
2021/12/23 07:50:37;;;;;;;26.45;13.85;;;0.50;99.90;;;-1.32;92.71;100893.84;2567025;30;139384;-37
2021/12/23 07:53:04;;;;;;;26.23;13.73;;;0.60;99.90;;;-1.27;93.09;100888.09;2568686;30;136704;-37
2021/12/23 07:55:32;;;;;;;30.77;13.88;;;0.60;99.90;;;-1.19;92.76;100889.13;2567654;30;139372;-37
2021/12/23 07:57:59;;;;;;;30.30;14.45;;;0.60;99.90;;;-1.16;92.46;100891.53;2567140;30;136749;-37
2021/12/23 08:00:29;;;;;;;31.73;14.75;;;0.70;99.90;;;-1.21;92.55;100876.84;2566122;30;138312;-37
2021/12/23 08:02:57;;;;;;;30.48;14.88;;;0.70;99.90;;;-1.18;92.62;100876.59;2567811;30;138323;-37
2021/12/23 08:05:25;;;;;;;28.45;13.50;;;0.70;99.90;;;-1.16;92.33;100872.81;2565835;30;138202;-37
2021/12/23 08:07:56;;;;;;;27.73;14.25;;;0.70;99.90;;;-1.08;92.41;100865.91;2568487;30;138322;-37
2021/12/23 08:10:24;;;;;;;27.73;14.15;;;0.70;99.90;;;-1.07;91.83;100868.44;2566806;30;138273;-37
2021/12/23 08:12:51;;;;;;;30.13;13.65;;;0.80;99.90;;;-1.08;91.92;100863.25;2566212;30;137286;-37
2021/12/23 08:15:19;;;;;;;27.95;14.15;;;0.80;99.90;;;-1.06;92.47;100869.31;2567788;30;138170;-37
2021/12/23 08:17:47;;;;;;;28.58;13.57;;;0.80;99.90;;;-1.08;92.21;100860.56;2567515;30;137446;-37
2021/12/23 08:20:16;;;;;;;30.27;14.05;;;0.80;99.90;;;-1.04;92.05;100853.94;2567438;30;138358;-37
2021/12/23 08:22:45;;;;;;;30.48;14.32;;;0.80;99.90;;;-1.07;92.28;100847.00;2565420;30;136913;-37
2021/12/23 08:25:14;;;;;;;26.90;13.98;;;0.80;99.90;;;-0.91;92.12;100861.75;2566797;30;139067;-37
2021/12/23 08:27:43;;;;;;;28.77;14.57;;;0.90;99.90;;;-0.90;91.33;100868.78;2567079;30;137660;-37
2021/12/23 08:30:14;;;;;;;27.85;14.25;;;0.90;99.90;;;-0.86;90.90;100875.56;2567956;30;139066;-37
2021/12/23 08:32:41;;;;;;;25.00;13.32;;;1.00;99.90;;;-0.89;91.00;100870.47;2566718;30;137889;-37
2021/12/23 08:35:10;;;;;;;28.70;13.75;;;0.90;99.90;;;-0.87;91.00;100877.41;2567597;30;138442;-37
2021/12/23 08:37:46;;;;;;;28.75;13.98;;;0.90;99.90;;;-0.79;91.91;100878.56;2568620;30;138421;-37
2021/12/23 08:40:22;;;;;;;29.83;13.77;;;1.00;99.90;;;-0.78;90.62;100881.13;2566824;30;139364;-37
2021/12/23 08:42:51;;;;;;;28.13;13.55;;;1.00;99.90;;;-0.75;91.28;100870.13;2569424;30;137190;-37
2021/12/23 08:45:20;;;;;;;26.55;13.40;;;1.10;99.90;;;-0.79;90.54;100862.47;2568002;30;137336;-37
2021/12/23 08:47:49;;;;;;;31.10;14.88;;;1.10;99.90;;;-0.65;90.14;100863.91;2568138;30;136705;-37
2021/12/23 08:50:19;;;;;;;26.30;12.85;;;1.10;99.90;;;-0.66;90.15;100856.88;2568648;30;138370;-37
2021/12/23 08:52:46;;;;;;;27.40;12.85;;;1.20;99.90;;;-0.65;90.03;100859.41;2567160;30;137524;-37
2021/12/23 08:55:15;;;;;;;25.30;12.73;;;1.20;99.90;;;-0.62;89.96;100867.19;2567103;30;138186;-37
2021/12/23 08:57:44;;;;;;;25.45;13.45;;;1.20;99.90;;;-0.57;89.31;100861.38;2566123;30;138000;-37
2021/12/23 09:00:17;;;;;;;26.42;12.75;;;1.30;99.90;;;-0.57;88.69;100858.72;2568100;30;137954;-37
2021/12/23 09:02:48;;;;;;;28.00;13.13;;;1.20;99.90;;;-0.52;89.52;100858.28;2569032;30;136847;-37
2021/12/23 09:05:19;;;;;;;28.15;14.02;;;1.30;99.90;;;-0.49;89.14;100849.97;2567978;30;138336;-37
2021/12/23 09:07:49;;;;;;;28.88;13.80;;;1.30;99.90;;;-0.49;89.77;100858.00;2567877;30;137071;-37
2021/12/23 09:10:18;;;;;;;26.75;13.60;;;1.30;99.90;;;-0.41;88.53;100866.19;2567979;30;137622;-37
2021/12/23 09:12:46;;;;;;;25.58;12.43;;;1.40;99.90;;;-0.37;88.08;100864.09;2569460;30;137440;-39
2021/12/23 09:15:14;;;;;;;24.20;12.60;;;1.40;99.90;;;-0.36;88.25;100865.78;2567754;30;138210;-39
2021/12/23 09:17:42;;;;;;;26.02;13.68;;;1.40;99.90;;;-0.31;88.46;100856.34;2568315;30;138386;-39
2021/12/23 09:20:13;;;;;;;31.77;14.15;;;1.50;99.90;;;-0.24;88.51;100858.47;2568132;30;137342;-40
2021/12/23 09:22:43;;;;;;;26.42;13.52;;;1.50;99.90;;;-0.16;88.51;100851.41;2567641;30;138605;-40
2021/12/23 09:25:22;;;;;;;27.90;13.68;;;1.60;99.90;;;-0.06;87.32;100847.88;2566732;30;138572;-40
2021/12/23 09:33:23;;;;;;;25.73;13.50;;;1.80;99.90;;;0.11;86.42;100827.50;2568565;30;136659;-39
2021/12/23 09:35:53;;;;;;;24.05;12.80;;;1.80;99.90;;;0.15;84.97;100826.25;2567936;30;139118;-39
2021/12/23 09:38:29;;;;;;;26.55;13.10;;;1.90;99.90;;;0.21;85.28;100830.19;2566617;30;137944;-39
2021/12/23 09:41:21;;;;;;;29.00;12.48;;;1.90;99.90;;;0.24;85.04;100819.16;2566306;30;139292;-39
2021/12/23 09:43:50;;;;;;;23.45;13.05;;;2.00;99.90;;;0.26;85.09;100815.34;2567723;30;137777;-39
2021/12/23 09:46:23;;;;;;;23.98;12.98;;;2.00;99.90;;;0.33;84.37;100809.38;2567562;30;138249;-39
2021/12/23 09:48:52;;;;;;;27.08;12.85;;;2.10;99.90;;;0.33;83.89;100818.31;2566838;30;137862;-39
2021/12/23 09:51:23;;;;;;;24.05;13.05;;;2.10;99.90;;;0.35;83.89;100816.31;2568513;30;138593;-39
2021/12/23 09:54:01;;;;;;;21.58;12.20;;;2.10;99.90;;;0.33;84.19;100804.88;2569114;30;136802;-40
2021/12/23 09:56:31;;;;;;;25.55;13.55;;;2.10;99.90;;;0.40;84.75;100814.03;2566832;30;138965;-39
2021/12/23 09:59:00;;;;;;;26.30;14.05;;;2.10;99.90;;;0.49;83.66;100808.78;2568281;30;137586;-39
2021/12/23 10:01:30;;;;;;;25.50;12.52;;;2.20;99.90;;;0.47;83.81;100800.88;2566725;30;138457;-39
2021/12/23 10:03:59;;;;;;;28.10;13.27;;;2.20;99.90;;;0.56;83.80;100812.59;2568510;30;137201;-40
2021/12/23 10:06:26;;;;;;;24.40;13.25;;;2.30;99.90;;;0.58;83.86;100805.22;2567402;30;138409;-39
2021/12/23 10:08:55;;;;;;;28.23;13.60;;;2.30;99.90;;;0.65;83.31;100800.09;2567679;30;138347;-39
2021/12/23 10:11:38;;;;;;;29.52;12.77;;;2.30;99.90;;;0.69;82.77;100796.13;2568546;30;137385;-40
2021/12/23 10:31:45;;;;;;;24.88;12.38;;;2.70;99.90;;;0.99;79.19;100753.84;2567346;30;138457;-39
2021/12/23 10:37:22;;;;;;;26.73;12.38;;;2.80;99.90;;;0.94;78.65;100742.69;2567695;30;138232;-39
2021/12/23 10:40:12;;;;;;;24.67;12.57;;;2.70;99.90;;;0.98;79.58;100738.72;2566172;30;138301;-39
2021/12/23 10:42:50;;;;;;;32.80;13.73;;;2.70;99.90;;;0.98;79.47;100736.03;2567145;30;137080;-39
2021/12/23 10:45:18;;;;;;;24.25;11.95;;;2.80;99.90;;;0.97;79.38;100732.47;2566850;30;138161;-39
2021/12/23 10:48:03;;;;;;;24.20;12.73;;;2.70;99.90;;;1.03;80.02;100720.28;2564413;30;136987;-40